Pocono Summit, Pennsylvania
Current Conditions -  °F | °C
As of 9:53 AM on Saturday 01 Nov 2014 (Local Time) from KMPO Reporting Station
Overcast Overcast  
Wind Chill: 35°   Ceiling: 3600
Heat Index: 41°   Visibility: 10mi
Dew Point: 31°   Wind: 10mph
Humidity: 67%   Direction: 40°NE
Pressure: 29.86"   Gusts: NA
Location:  41.11°N, 75.39°W
Report Text: KMPO 011353Z AUTO 04009KT 10SM BKN036 BKN045 OVC110 05/M01 A2986 RMK AO2 RAB07E31 SLP123 P0000 T00501006
Loading
Personal Weather Stations






























Interactive Weather Map New forecast layout! Learn more

10-Day Weather Forecast

Advertisements
Track Severe Weather on mobile